sensor_id;sensor_type;location;lat;lon;timestamp;temperature;humidity
53782;DHT22;39692;53.114;7.060;2022-11-06T00:01:29;10.00;99.90
53782;DHT22;39692;53.114;7.060;2022-11-06T00:03:55;10.00;99.90
53782;DHT22;39692;53.114;7.060;2022-11-06T00:06:21;10.00;99.90
53782;DHT22;39692;53.114;7.060;2022-11-06T00:09:08;10.00;99.90
53782;DHT22;39692;53.114;7.060;2022-11-06T00:11:34;10.10;99.90
53782;DHT22;39692;53.114;7.060;2022-11-06T00:14:00;10.00;99.90
53782;DHT22;39692;53.114;7.060;2022-11-06T00:16:26;10.00;99.90
53782;DHT22;39692;53.114;7.060;2022-11-06T00:18:53;10.10;99.90
53782;DHT22;39692;53.114;7.060;2022-11-06T00:21:25;10.00;99.90
53782;DHT22;39692;53.114;7.060;2022-11-06T00:23:51;10.10;99.90
53782;DHT22;39692;53.114;7.060;2022-11-06T00:26:20;10.00;99.90
53782;DHT22;39692;53.114;7.060;2022-11-06T00:28:47;10.00;99.90
53782;DHT22;39692;53.114;7.060;2022-11-06T00:31:15;10.10;99.90
53782;DHT22;39692;53.114;7.060;2022-11-06T00:33:42;10.00;99.90
53782;DHT22;39692;53.114;7.060;2022-11-06T00:36:11;10.00;99.90
53782;DHT22;39692;53.114;7.060;2022-11-06T00:38:37;10.10;99.90
53782;DHT22;39692;53.114;7.060;2022-11-06T00:41:05;10.00;99.90
53782;DHT22;39692;53.114;7.060;2022-11-06T00:43:31;10.00;99.90
53782;DHT22;39692;53.114;7.060;2022-11-06T00:46:06;9.90;99.90
53782;DHT22;39692;53.114;7.060;2022-11-06T00:48:32;9.90;99.90
53782;DHT22;39692;53.114;7.060;2022-11-06T00:51:26;9.90;99.90
53782;DHT22;39692;53.114;7.060;2022-11-06T00:53:54;9.90;99.90
53782;DHT22;39692;53.114;7.060;2022-11-06T00:56:20;9.90;99.90
53782;DHT22;39692;53.114;7.060;2022-11-06T00:58:46;9.90;99.90
53782;DHT22;39692;53.114;7.060;2022-11-06T01:01:14;9.90;99.90
53782;DHT22;39692;53.114;7.060;2022-11-06T01:03:42;9.90;99.90
53782;DHT22;39692;53.114;7.060;2022-11-06T01:06:17;9.80;99.90
53782;DHT22;39692;53.114;7.060;2022-11-06T01:08:44;9.80;99.90
53782;DHT22;39692;53.114;7.060;2022-11-06T01:11:19;9.70;99.90
53782;DHT22;39692;53.114;7.060;2022-11-06T01:13:47;9.70;99.90
53782;DHT22;39692;53.114;7.060;2022-11-06T01:16:14;9.60;99.90
53782;DHT22;39692;53.114;7.060;2022-11-06T01:18:41;9.60;99.90
53782;DHT22;39692;53.114;7.060;2022-11-06T01:21:18;9.50;99.90
53782;DHT22;39692;53.114;7.060;2022-11-06T01:23:45;9.50;99.90
53782;DHT22;39692;53.114;7.060;2022-11-06T01:26:12;9.50;99.90
53782;DHT22;39692;53.114;7.060;2022-11-06T01:28:39;9.40;99.90
53782;DHT22;39692;53.114;7.060;2022-11-06T01:31:11;9.40;99.90
53782;DHT22;39692;53.114;7.060;2022-11-06T01:33:37;9.40;99.90
53782;DHT22;39692;53.114;7.060;2022-11-06T01:36:03;9.40;99.90
53782;DHT22;39692;53.114;7.060;2022-11-06T01:38:29;9.40;99.90
53782;DHT22;39692;53.114;7.060;2022-11-06T01:40:55;9.40;99.90
53782;DHT22;39692;53.114;7.060;2022-11-06T01:43:24;9.40;99.90
53782;DHT22;39692;53.114;7.060;2022-11-06T01:45:52;9.50;99.90
53782;DHT22;39692;53.114;7.060;2022-11-06T01:48:27;9.40;99.90
53782;DHT22;39692;53.114;7.060;2022-11-06T01:50:57;9.40;99.90
53782;DHT22;39692;53.114;7.060;2022-11-06T01:53:24;9.40;99.90
53782;DHT22;39692;53.114;7.060;2022-11-06T01:55:52;9.40;99.90
53782;DHT22;39692;53.114;7.060;2022-11-06T01:58:21;9.40;99.90
53782;DHT22;39692;53.114;7.060;2022-11-06T02:00:49;9.40;99.90
53782;DHT22;39692;53.114;7.060;2022-11-06T02:03:16;9.40;99.90
53782;DHT22;39692;53.114;7.060;2022-11-06T02:05:42;9.40;99.90
53782;DHT22;39692;53.114;7.060;2022-11-06T02:08:13;9.30;99.90
53782;DHT22;39692;53.114;7.060;2022-11-06T02:10:41;9.30;99.90
53782;DHT22;39692;53.114;7.060;2022-11-06T02:21:49;9.30;99.90
53782;DHT22;39692;53.114;7.060;2022-11-06T02:27:15;9.30;99.90
53782;DHT22;39692;53.114;7.060;2022-11-06T02:30:00;9.30;99.90
53782;DHT22;39692;53.114;7.060;2022-11-06T02:33:12;9.30;99.90
53782;DHT22;39692;53.114;7.060;2022-11-06T02:37:50;9.30;99.90
53782;DHT22;39692;53.114;7.060;2022-11-06T02:40:18;9.30;99.90
53782;DHT22;39692;53.114;7.060;2022-11-06T02:42:48;9.30;99.90
53782;DHT22;39692;53.114;7.060;2022-11-06T02:45:16;9.30;99.90
53782;DHT22;39692;53.114;7.060;2022-11-06T02:47:46;9.30;99.90
53782;DHT22;39692;53.114;7.060;2022-11-06T02:50:32;9.30;99.90
53782;DHT22;39692;53.114;7.060;2022-11-06T02:53:05;9.30;99.90
53782;DHT22;39692;53.114;7.060;2022-11-06T02:55:38;9.30;99.90
53782;DHT22;39692;53.114;7.060;2022-11-06T02:58:12;9.30;99.90
53782;DHT22;39692;53.114;7.060;2022-11-06T03:00:41;9.20;99.90
53782;DHT22;39692;53.114;7.060;2022-11-06T03:03:19;9.20;99.90
53782;DHT22;39692;53.114;7.060;2022-11-06T03:06:00;9.10;99.90
53782;DHT22;39692;53.114;7.060;2022-11-06T03:08:33;9.20;99.90
53782;DHT22;39692;53.114;7.060;2022-11-06T03:11:20;9.10;99.90
53782;DHT22;39692;53.114;7.060;2022-11-06T03:16:38;9.10;99.90
53782;DHT22;39692;53.114;7.060;2022-11-06T03:22:08;9.20;99.90
53782;DHT22;39692;53.114;7.060;2022-11-06T03:24:45;9.10;99.90
53782;DHT22;39692;53.114;7.060;2022-11-06T03:27:19;9.10;99.90
53782;DHT22;39692;53.114;7.060;2022-11-06T03:30:07;9.10;99.90
53782;DHT22;39692;53.114;7.060;2022-11-06T03:33:01;9.10;99.90
53782;DHT22;39692;53.114;7.060;2022-11-06T03:35:43;9.10;99.90
53782;DHT22;39692;53.114;7.060;2022-11-06T03:40:49;9.10;99.90
53782;DHT22;39692;53.114;7.060;2022-11-06T03:43:19;9.10;99.90
53782;DHT22;39692;53.114;7.060;2022-11-06T03:45:48;9.10;99.90
53782;DHT22;39692;53.114;7.060;2022-11-06T03:48:32;9.00;99.90
53782;DHT22;39692;53.114;7.060;2022-11-06T03:51:09;9.00;99.90
53782;DHT22;39692;53.114;7.060;2022-11-06T03:53:44;9.00;99.90
53782;DHT22;39692;53.114;7.060;2022-11-06T03:56:27;8.90;99.90
53782;DHT22;39692;53.114;7.060;2022-11-06T03:58:56;8.90;99.90
53782;DHT22;39692;53.114;7.060;2022-11-06T04:01:27;8.90;99.90
53782;DHT22;39692;53.114;7.060;2022-11-06T04:04:03;8.90;99.90
53782;DHT22;39692;53.114;7.060;2022-11-06T04:06:39;8.90;99.90
53782;DHT22;39692;53.114;7.060;2022-11-06T04:09:08;8.90;99.90
53782;DHT22;39692;53.114;7.060;2022-11-06T04:11:55;8.80;99.90
53782;DHT22;39692;53.114;7.060;2022-11-06T04:14:44;8.80;99.90
53782;DHT22;39692;53.114;7.060;2022-11-06T04:17:12;8.80;99.90
53782;DHT22;39692;53.114;7.060;2022-11-06T04:19:46;8.80;99.90
53782;DHT22;39692;53.114;7.060;2022-11-06T04:31:08;8.90;99.90
53782;DHT22;39692;53.114;7.060;2022-11-06T04:36:23;8.90;99.90
53782;DHT22;39692;53.114;7.060;2022-11-06T04:39:05;8.90;99.90
53782;DHT22;39692;53.114;7.060;2022-11-06T04:41:49;8.90;99.90
53782;DHT22;39692;53.114;7.060;2022-11-06T04:44:30;8.90;99.90
53782;DHT22;39692;53.114;7.060;2022-11-06T04:47:02;8.90;99.90
53782;DHT22;39692;53.114;7.060;2022-11-06T04:49:31;8.90;99.90
53782;DHT22;39692;53.114;7.060;2022-11-06T04:51:59;8.90;99.90
53782;DHT22;39692;53.114;7.060;2022-11-06T04:54:27;8.90;99.90
53782;DHT22;39692;53.114;7.060;2022-11-06T04:56:59;8.90;99.90
53782;DHT22;39692;53.114;7.060;2022-11-06T04:59:26;8.90;99.90
53782;DHT22;39692;53.114;7.060;2022-11-06T05:01:52;8.90;99.90
53782;DHT22;39692;53.114;7.060;2022-11-06T05:04:18;8.90;99.90
53782;DHT22;39692;53.114;7.060;2022-11-06T05:06:44;9.00;99.90
53782;DHT22;39692;53.114;7.060;2022-11-06T05:09:09;8.90;99.90
53782;DHT22;39692;53.114;7.060;2022-11-06T05:11:35;9.00;99.90
53782;DHT22;39692;53.114;7.060;2022-11-06T05:14:02;8.90;99.90
53782;DHT22;39692;53.114;7.060;2022-11-06T05:16:28;9.00;99.90
53782;DHT22;39692;53.114;7.060;2022-11-06T05:18:54;9.00;99.90
53782;DHT22;39692;53.114;7.060;2022-11-06T05:21:20;9.00;99.90
53782;DHT22;39692;53.114;7.060;2022-11-06T05:24:05;9.00;99.90
53782;DHT22;39692;53.114;7.060;2022-11-06T05:26:31;9.00;99.90
53782;DHT22;39692;53.114;7.060;2022-11-06T05:28:56;9.00;99.90
53782;DHT22;39692;53.114;7.060;2022-11-06T05:31:23;8.90;99.90
53782;DHT22;39692;53.114;7.060;2022-11-06T05:33:49;9.00;99.90
53782;DHT22;39692;53.114;7.060;2022-11-06T05:36:14;9.00;99.90
53782;DHT22;39692;53.114;7.060;2022-11-06T05:38:40;9.00;99.90
53782;DHT22;39692;53.114;7.060;2022-11-06T05:41:06;9.00;99.90
53782;DHT22;39692;53.114;7.060;2022-11-06T05:43:31;9.00;99.90
53782;DHT22;39692;53.114;7.060;2022-11-06T05:45:57;9.00;99.90
53782;DHT22;39692;53.114;7.060;2022-11-06T05:48:28;9.00;99.90
53782;DHT22;39692;53.114;7.060;2022-11-06T05:51:00;9.00;99.90
53782;DHT22;39692;53.114;7.060;2022-11-06T05:53:26;9.00;99.90
53782;DHT22;39692;53.114;7.060;2022-11-06T05:55:51;9.10;99.90
53782;DHT22;39692;53.114;7.060;2022-11-06T05:58:17;9.10;99.90
53782;DHT22;39692;53.114;7.060;2022-11-06T06:00:44;9.10;99.90
53782;DHT22;39692;53.114;7.060;2022-11-06T06:03:10;9.10;99.90
53782;DHT22;39692;53.114;7.060;2022-11-06T06:05:36;9.10;99.90
53782;DHT22;39692;53.114;7.060;2022-11-06T06:08:03;9.10;99.90
53782;DHT22;39692;53.114;7.060;2022-11-06T06:10:28;9.10;99.90
53782;DHT22;39692;53.114;7.060;2022-11-06T06:12:54;9.10;99.90
53782;DHT22;39692;53.114;7.060;2022-11-06T06:15:20;9.10;99.90
53782;DHT22;39692;53.114;7.060;2022-11-06T06:17:45;9.10;99.90
53782;DHT22;39692;53.114;7.060;2022-11-06T06:20:11;9.00;99.90
53782;DHT22;39692;53.114;7.060;2022-11-06T06:22:37;9.10;99.90
53782;DHT22;39692;53.114;7.060;2022-11-06T06:25:03;9.10;99.90
53782;DHT22;39692;53.114;7.060;2022-11-06T06:27:29;9.10;99.90
53782;DHT22;39692;53.114;7.060;2022-11-06T06:29:55;9.10;99.90
53782;DHT22;39692;53.114;7.060;2022-11-06T06:32:21;9.10;99.90
53782;DHT22;39692;53.114;7.060;2022-11-06T06:34:47;9.10;99.90
53782;DHT22;39692;53.114;7.060;2022-11-06T06:37:13;9.10;99.90
53782;DHT22;39692;53.114;7.060;2022-11-06T06:39:38;9.10;99.90
53782;DHT22;39692;53.114;7.060;2022-11-06T06:42:04;9.10;99.90
53782;DHT22;39692;53.114;7.060;2022-11-06T06:44:30;9.10;99.90
53782;DHT22;39692;53.114;7.060;2022-11-06T06:46:56;9.10;99.90
53782;DHT22;39692;53.114;7.060;2022-11-06T06:49:22;9.10;99.90
53782;DHT22;39692;53.114;7.060;2022-11-06T06:51:48;9.10;99.90
53782;DHT22;39692;53.114;7.060;2022-11-06T06:54:14;9.20;99.90
53782;DHT22;39692;53.114;7.060;2022-11-06T06:56:39;9.20;99.90
53782;DHT22;39692;53.114;7.060;2022-11-06T06:59:05;9.20;99.90
53782;DHT22;39692;53.114;7.060;2022-11-06T07:01:32;9.20;99.90
53782;DHT22;39692;53.114;7.060;2022-11-06T07:03:57;9.30;99.90
53782;DHT22;39692;53.114;7.060;2022-11-06T07:06:23;9.30;99.90
53782;DHT22;39692;53.114;7.060;2022-11-06T07:08:49;9.30;99.90
53782;DHT22;39692;53.114;7.060;2022-11-06T07:11:18;9.40;99.90
53782;DHT22;39692;53.114;7.060;2022-11-06T07:13:44;9.40;99.90
53782;DHT22;39692;53.114;7.060;2022-11-06T07:21:07;9.50;99.90
53782;DHT22;39692;53.114;7.060;2022-11-06T07:23:34;9.50;99.90
53782;DHT22;39692;53.114;7.060;2022-11-06T07:26:00;9.60;99.90
53782;DHT22;39692;53.114;7.060;2022-11-06T07:28:26;9.60;99.90
53782;DHT22;39692;53.114;7.060;2022-11-06T07:30:52;9.60;99.90
53782;DHT22;39692;53.114;7.060;2022-11-06T07:33:21;9.70;99.90
53782;DHT22;39692;53.114;7.060;2022-11-06T07:35:47;9.60;99.90
53782;DHT22;39692;53.114;7.060;2022-11-06T07:38:12;9.70;99.90
53782;DHT22;39692;53.114;7.060;2022-11-06T07:40:38;9.70;99.90
53782;DHT22;39692;53.114;7.060;2022-11-06T07:43:09;9.70;99.90
53782;DHT22;39692;53.114;7.060;2022-11-06T07:45:36;9.70;99.90
53782;DHT22;39692;53.114;7.060;2022-11-06T07:48:04;9.70;99.90
53782;DHT22;39692;53.114;7.060;2022-11-06T07:50:31;9.70;99.90
53782;DHT22;39692;53.114;7.060;2022-11-06T07:52:57;9.80;99.90
53782;DHT22;39692;53.114;7.060;2022-11-06T07:55:25;9.80;99.90
53782;DHT22;39692;53.114;7.060;2022-11-06T07:57:50;9.80;99.90
53782;DHT22;39692;53.114;7.060;2022-11-06T08:00:16;9.90;99.90
53782;DHT22;39692;53.114;7.060;2022-11-06T08:02:42;9.90;99.90
53782;DHT22;39692;53.114;7.060;2022-11-06T08:05:08;9.90;99.90
53782;DHT22;39692;53.114;7.060;2022-11-06T08:07:34;10.00;99.90
53782;DHT22;39692;53.114;7.060;2022-11-06T08:10:00;10.10;99.90
53782;DHT22;39692;53.114;7.060;2022-11-06T08:12:26;10.10;99.90
53782;DHT22;39692;53.114;7.060;2022-11-06T08:14:51;10.20;99.90
53782;DHT22;39692;53.114;7.060;2022-11-06T08:17:17;10.20;99.90
53782;DHT22;39692;53.114;7.060;2022-11-06T08:19:43;10.20;99.90
53782;DHT22;39692;53.114;7.060;2022-11-06T09:55:52;12.40;99.90
53782;DHT22;39692;53.114;7.060;2022-11-06T09:58:33;12.60;99.90
53782;DHT22;39692;53.114;7.060;2022-11-06T10:01:05;12.80;99.90
53782;DHT22;39692;53.114;7.060;2022-11-06T10:03:42;12.80;99.90
53782;DHT22;39692;53.114;7.060;2022-11-06T10:06:10;12.70;99.90
53782;DHT22;39692;53.114;7.060;2022-11-06T10:08:36;12.70;99.90
53782;DHT22;39692;53.114;7.060;2022-11-06T10:14:30;13.60;99.90
53782;DHT22;39692;53.114;7.060;2022-11-06T10:20:11;13.40;99.90
53782;DHT22;39692;53.114;7.060;2022-11-06T10:25:25;13.20;99.90
53782;DHT22;39692;53.114;7.060;2022-11-06T10:28:01;13.40;99.90
53782;DHT22;39692;53.114;7.060;2022-11-06T10:30:35;13.50;99.90
53782;DHT22;39692;53.114;7.060;2022-11-06T10:35:42;13.00;99.90
53782;DHT22;39692;53.114;7.060;2022-11-06T10:38:16;12.90;99.90
53782;DHT22;39692;53.114;7.060;2022-11-06T10:40:44;12.90;99.90
53782;DHT22;39692;53.114;7.060;2022-11-06T10:45:58;12.70;99.90
53782;DHT22;39692;53.114;7.060;2022-11-06T10:48:29;12.50;99.90
53782;DHT22;39692;53.114;7.060;2022-11-06T10:59:29;12.30;99.90
53782;DHT22;39692;53.114;7.060;2022-11-06T11:01:55;12.30;99.90
53782;DHT22;39692;53.114;7.060;2022-11-06T11:04:20;12.30;99.90
53782;DHT22;39692;53.114;7.060;2022-11-06T11:06:46;12.20;99.90
53782;DHT22;39692;53.114;7.060;2022-11-06T11:09:32;12.20;99.90
53782;DHT22;39692;53.114;7.060;2022-11-06T11:11:59;12.20;99.90
53782;DHT22;39692;53.114;7.060;2022-11-06T11:14:27;12.30;99.90
53782;DHT22;39692;53.114;7.060;2022-11-06T11:16:54;12.40;99.90
53782;DHT22;39692;53.114;7.060;2022-11-06T11:19:35;12.40;99.90
53782;DHT22;39692;53.114;7.060;2022-11-06T11:22:17;12.60;99.90
53782;DHT22;39692;53.114;7.060;2022-11-06T11:27:31;13.50;99.90
53782;DHT22;39692;53.114;7.060;2022-11-06T11:29:59;13.50;99.90
53782;DHT22;39692;53.114;7.060;2022-11-06T11:32:28;13.60;99.90
53782;DHT22;39692;53.114;7.060;2022-11-06T11:34:55;13.60;99.90
53782;DHT22;39692;53.114;7.060;2022-11-06T11:39:50;13.80;99.90
53782;DHT22;39692;53.114;7.060;2022-11-06T11:42:25;13.90;99.90
53782;DHT22;39692;53.114;7.060;2022-11-06T11:47:47;13.80;99.90
53782;DHT22;39692;53.114;7.060;2022-11-06T11:52:44;13.60;99.90
53782;DHT22;39692;53.114;7.060;2022-11-06T11:55:15;13.50;99.90
53782;DHT22;39692;53.114;7.060;2022-11-06T11:57:46;13.50;99.90
53782;DHT22;39692;53.114;7.060;2022-11-06T12:00:22;13.40;99.90
53782;DHT22;39692;53.114;7.060;2022-11-06T12:02:53;13.30;99.90
53782;DHT22;39692;53.114;7.060;2022-11-06T12:05:23;13.30;99.90
53782;DHT22;39692;53.114;7.060;2022-11-06T12:07:56;13.30;99.90
53782;DHT22;39692;53.114;7.060;2022-11-06T12:12:54;13.30;99.90
53782;DHT22;39692;53.114;7.060;2022-11-06T12:15:39;13.40;99.90
53782;DHT22;39692;53.114;7.060;2022-11-06T12:18:17;13.40;99.90
53782;DHT22;39692;53.114;7.060;2022-11-06T12:21:05;13.50;99.90
53782;DHT22;39692;53.114;7.060;2022-11-06T12:23:45;13.60;99.90
53782;DHT22;39692;53.114;7.060;2022-11-06T12:28:41;13.60;99.90
53782;DHT22;39692;53.114;7.060;2022-11-06T12:41:23;14.20;99.90
53782;DHT22;39692;53.114;7.060;2022-11-06T12:43:50;14.00;99.90
53782;DHT22;39692;53.114;7.060;2022-11-06T13:07:44;14.00;99.90
53782;DHT22;39692;53.114;7.060;2022-11-06T13:18:17;13.40;99.90
53782;DHT22;39692;53.114;7.060;2022-11-06T13:23:50;13.20;99.90
53782;DHT22;39692;53.114;7.060;2022-11-06T13:26:39;13.10;99.90
53782;DHT22;39692;53.114;7.060;2022-11-06T13:29:04;12.90;99.90
53782;DHT22;39692;53.114;7.060;2022-11-06T13:31:40;12.90;99.90
53782;DHT22;39692;53.114;7.060;2022-11-06T13:34:13;12.80;99.90
53782;DHT22;39692;53.114;7.060;2022-11-06T13:36:41;12.80;99.90
53782;DHT22;39692;53.114;7.060;2022-11-06T13:39:12;12.70;99.90
53782;DHT22;39692;53.114;7.060;2022-11-06T13:41:40;12.70;99.90
53782;DHT22;39692;53.114;7.060;2022-11-06T13:44:08;12.70;99.90
53782;DHT22;39692;53.114;7.060;2022-11-06T14:02:25;12.60;99.90
53782;DHT22;39692;53.114;7.060;2022-11-06T14:07:48;12.60;99.90
53782;DHT22;39692;53.114;7.060;2022-11-06T14:10:23;12.50;99.90
53782;DHT22;39692;53.114;7.060;2022-11-06T14:12:52;12.50;99.90
53782;DHT22;39692;53.114;7.060;2022-11-06T14:17:54;12.50;99.90
53782;DHT22;39692;53.114;7.060;2022-11-06T14:20:33;12.50;99.90
53782;DHT22;39692;53.114;7.060;2022-11-06T14:26:10;12.50;99.90
53782;DHT22;39692;53.114;7.060;2022-11-06T14:28:42;12.40;99.90
53782;DHT22;39692;53.114;7.060;2022-11-06T14:31:09;12.40;99.90
53782;DHT22;39692;53.114;7.060;2022-11-06T14:38:48;12.30;99.90
53782;DHT22;39692;53.114;7.060;2022-11-06T14:44:05;12.30;99.90
53782;DHT22;39692;53.114;7.060;2022-11-06T14:46:32;12.30;99.90
53782;DHT22;39692;53.114;7.060;2022-11-06T14:52:05;12.40;99.90
53782;DHT22;39692;53.114;7.060;2022-11-06T14:54:34;12.40;99.90
53782;DHT22;39692;53.114;7.060;2022-11-06T14:57:00;12.40;99.90
53782;DHT22;39692;53.114;7.060;2022-11-06T14:59:34;12.40;99.90
53782;DHT22;39692;53.114;7.060;2022-11-06T15:02:22;12.40;99.90
53782;DHT22;39692;53.114;7.060;2022-11-06T15:05:04;12.30;99.90
53782;DHT22;39692;53.114;7.060;2022-11-06T15:07:53;12.30;99.90
53782;DHT22;39692;53.114;7.060;2022-11-06T15:15:46;12.20;99.90
53782;DHT22;39692;53.114;7.060;2022-11-06T15:18:22;12.20;99.90
53782;DHT22;39692;53.114;7.060;2022-11-06T15:20:54;12.20;99.90
53782;DHT22;39692;53.114;7.060;2022-11-06T15:23:36;12.10;99.90
53782;DHT22;39692;53.114;7.060;2022-11-06T15:31:50;12.00;99.90
53782;DHT22;39692;53.114;7.060;2022-11-06T15:34:26;12.00;99.90
53782;DHT22;39692;53.114;7.060;2022-11-06T15:37:11;12.00;99.90
53782;DHT22;39692;53.114;7.060;2022-11-06T15:39:54;12.00;99.90
53782;DHT22;39692;53.114;7.060;2022-11-06T15:42:25;12.00;99.90
53782;DHT22;39692;53.114;7.060;2022-11-06T15:47:40;11.90;99.90
53782;DHT22;39692;53.114;7.060;2022-11-06T15:50:26;11.90;99.90
53782;DHT22;39692;53.114;7.060;2022-11-06T15:53:14;11.90;99.90
53782;DHT22;39692;53.114;7.060;2022-11-06T15:55:46;11.90;99.90
53782;DHT22;39692;53.114;7.060;2022-11-06T16:00:42;11.80;99.90
53782;DHT22;39692;53.114;7.060;2022-11-06T16:03:12;11.80;99.90
53782;DHT22;39692;53.114;7.060;2022-11-06T16:05:39;11.80;99.90
53782;DHT22;39692;53.114;7.060;2022-11-06T16:08:05;11.80;99.90
53782;DHT22;39692;53.114;7.060;2022-11-06T16:10:33;11.70;99.90
53782;DHT22;39692;53.114;7.060;2022-11-06T16:13:01;11.70;99.90
53782;DHT22;39692;53.114;7.060;2022-11-06T16:18:23;11.70;99.90
53782;DHT22;39692;53.114;7.060;2022-11-06T16:20:51;11.70;99.90
53782;DHT22;39692;53.114;7.060;2022-11-06T16:23:21;11.70;99.90
53782;DHT22;39692;53.114;7.060;2022-11-06T16:25:47;11.60;99.90
53782;DHT22;39692;53.114;7.060;2022-11-06T16:28:18;11.60;99.90
53782;DHT22;39692;53.114;7.060;2022-11-06T16:30:48;11.60;99.90
53782;DHT22;39692;53.114;7.060;2022-11-06T16:33:21;11.60;99.90
53782;DHT22;39692;53.114;7.060;2022-11-06T16:35:50;11.50;99.90
53782;DHT22;39692;53.114;7.060;2022-11-06T16:43:16;11.40;99.90
53782;DHT22;39692;53.114;7.060;2022-11-06T16:48:24;11.30;99.90
53782;DHT22;39692;53.114;7.060;2022-11-06T16:56:05;11.00;99.90
53782;DHT22;39692;53.114;7.060;2022-11-06T16:58:33;11.00;99.90
53782;DHT22;39692;53.114;7.060;2022-11-06T17:01:05;10.80;99.90
53782;DHT22;39692;53.114;7.060;2022-11-06T17:03:51;10.70;99.90
53782;DHT22;39692;53.114;7.060;2022-11-06T17:06:25;10.60;99.90
53782;DHT22;39692;53.114;7.060;2022-11-06T17:09:27;10.40;99.90
53782;DHT22;39692;53.114;7.060;2022-11-06T17:11:54;10.30;99.90
53782;DHT22;39692;53.114;7.060;2022-11-06T17:16:52;9.90;99.90
53782;DHT22;39692;53.114;7.060;2022-11-06T17:19:19;9.90;99.90
53782;DHT22;39692;53.114;7.060;2022-11-06T17:21:47;9.80;99.90
53782;DHT22;39692;53.114;7.060;2022-11-06T17:24:13;9.60;99.90
53782;DHT22;39692;53.114;7.060;2022-11-06T17:26:50;9.50;99.90
53782;DHT22;39692;53.114;7.060;2022-11-06T17:29:16;9.40;99.90
53782;DHT22;39692;53.114;7.060;2022-11-06T17:31:42;9.40;99.90
53782;DHT22;39692;53.114;7.060;2022-11-06T17:34:08;9.30;99.90
53782;DHT22;39692;53.114;7.060;2022-11-06T17:36:36;9.30;99.90
53782;DHT22;39692;53.114;7.060;2022-11-06T17:39:03;9.20;99.90
53782;DHT22;39692;53.114;7.060;2022-11-06T17:41:29;9.10;99.90
53782;DHT22;39692;53.114;7.060;2022-11-06T17:44:09;9.10;99.90
53782;DHT22;39692;53.114;7.060;2022-11-06T17:46:44;9.10;99.90
53782;DHT22;39692;53.114;7.060;2022-11-06T17:49:12;9.00;99.90
53782;DHT22;39692;53.114;7.060;2022-11-06T17:51:38;9.00;99.90
53782;DHT22;39692;53.114;7.060;2022-11-06T17:54:29;8.90;99.90
53782;DHT22;39692;53.114;7.060;2022-11-06T17:57:00;8.90;99.90
53782;DHT22;39692;53.114;7.060;2022-11-06T17:59:26;8.90;99.90
53782;DHT22;39692;53.114;7.060;2022-11-06T18:06:47;8.80;99.90
53782;DHT22;39692;53.114;7.060;2022-11-06T18:09:14;8.80;99.90
53782;DHT22;39692;53.114;7.060;2022-11-06T18:11:40;8.80;99.90
53782;DHT22;39692;53.114;7.060;2022-11-06T18:14:06;8.80;99.90
53782;DHT22;39692;53.114;7.060;2022-11-06T18:16:34;8.80;99.90
53782;DHT22;39692;53.114;7.060;2022-11-06T18:19:01;8.70;99.90
53782;DHT22;39692;53.114;7.060;2022-11-06T18:21:29;8.70;99.90
53782;DHT22;39692;53.114;7.060;2022-11-06T18:23:55;8.70;99.90
53782;DHT22;39692;53.114;7.060;2022-11-06T18:26:20;8.70;99.90
53782;DHT22;39692;53.114;7.060;2022-11-06T18:28:47;8.60;99.90
53782;DHT22;39692;53.114;7.060;2022-11-06T18:31:13;8.60;99.90
53782;DHT22;39692;53.114;7.060;2022-11-06T18:33:38;8.60;99.90
53782;DHT22;39692;53.114;7.060;2022-11-06T18:36:06;8.60;99.90
53782;DHT22;39692;53.114;7.060;2022-11-06T18:38:33;8.60;99.90
53782;DHT22;39692;53.114;7.060;2022-11-06T18:41:04;8.50;99.90
53782;DHT22;39692;53.114;7.060;2022-11-06T18:43:30;8.50;99.90
53782;DHT22;39692;53.114;7.060;2022-11-06T18:45:56;8.50;99.90
53782;DHT22;39692;53.114;7.060;2022-11-06T18:48:22;8.60;99.90
53782;DHT22;39692;53.114;7.060;2022-11-06T18:50:47;8.60;99.90
53782;DHT22;39692;53.114;7.060;2022-11-06T18:53:13;8.60;99.90
53782;DHT22;39692;53.114;7.060;2022-11-06T18:55:43;8.60;99.90
53782;DHT22;39692;53.114;7.060;2022-11-06T18:58:10;8.60;99.90
53782;DHT22;39692;53.114;7.060;2022-11-06T19:00:36;8.60;99.90
53782;DHT22;39692;53.114;7.060;2022-11-06T19:03:02;8.70;99.90
53782;DHT22;39692;53.114;7.060;2022-11-06T19:05:28;8.60;99.90
53782;DHT22;39692;53.114;7.060;2022-11-06T19:07:53;8.70;99.90
53782;DHT22;39692;53.114;7.060;2022-11-06T19:10:19;8.70;99.90
53782;DHT22;39692;53.114;7.060;2022-11-06T19:12:45;8.70;99.90
53782;DHT22;39692;53.114;7.060;2022-11-06T19:15:10;8.70;99.90
53782;DHT22;39692;53.114;7.060;2022-11-06T19:17:36;8.70;99.90
53782;DHT22;39692;53.114;7.060;2022-11-06T19:20:02;8.80;99.90
53782;DHT22;39692;53.114;7.060;2022-11-06T19:22:28;8.70;99.90
53782;DHT22;39692;53.114;7.060;2022-11-06T19:24:55;8.80;99.90
53782;DHT22;39692;53.114;7.060;2022-11-06T19:27:21;8.80;99.90
53782;DHT22;39692;53.114;7.060;2022-11-06T19:29:46;8.80;99.90
53782;DHT22;39692;53.114;7.060;2022-11-06T19:32:12;8.70;99.90
53782;DHT22;39692;53.114;7.060;2022-11-06T19:34:38;8.80;99.90
53782;DHT22;39692;53.114;7.060;2022-11-06T19:37:03;8.80;99.90
53782;DHT22;39692;53.114;7.060;2022-11-06T19:39:29;8.70;99.90
53782;DHT22;39692;53.114;7.060;2022-11-06T19:41:55;8.70;99.90
53782;DHT22;39692;53.114;7.060;2022-11-06T19:44:22;8.80;99.90
53782;DHT22;39692;53.114;7.060;2022-11-06T19:46:48;8.70;99.90
53782;DHT22;39692;53.114;7.060;2022-11-06T19:49:13;8.80;99.90
53782;DHT22;39692;53.114;7.060;2022-11-06T19:51:40;8.70;99.90
53782;DHT22;39692;53.114;7.060;2022-11-06T19:54:07;8.70;99.90
53782;DHT22;39692;53.114;7.060;2022-11-06T19:56:33;8.70;99.90
53782;DHT22;39692;53.114;7.060;2022-11-06T19:58:59;8.70;99.90
53782;DHT22;39692;53.114;7.060;2022-11-06T20:01:26;8.70;99.90
53782;DHT22;39692;53.114;7.060;2022-11-06T20:03:52;8.70;99.90
53782;DHT22;39692;53.114;7.060;2022-11-06T20:06:17;8.70;99.90
53782;DHT22;39692;53.114;7.060;2022-11-06T20:08:47;8.70;99.90
53782;DHT22;39692;53.114;7.060;2022-11-06T20:11:14;8.60;99.90
53782;DHT22;39692;53.114;7.060;2022-11-06T20:13:41;8.60;99.90
53782;DHT22;39692;53.114;7.060;2022-11-06T20:16:16;8.50;99.90
53782;DHT22;39692;53.114;7.060;2022-11-06T20:18:43;8.60;99.90
53782;DHT22;39692;53.114;7.060;2022-11-06T20:21:10;8.50;99.90
53782;DHT22;39692;53.114;7.060;2022-11-06T20:23:37;8.50;99.90
53782;DHT22;39692;53.114;7.060;2022-11-06T20:26:04;8.40;99.90
53782;DHT22;39692;53.114;7.060;2022-11-06T20:28:29;8.40;99.90
53782;DHT22;39692;53.114;7.060;2022-11-06T20:30:55;8.30;99.90
53782;DHT22;39692;53.114;7.060;2022-11-06T20:33:21;8.30;99.90
53782;DHT22;39692;53.114;7.060;2022-11-06T20:35:47;8.30;99.90
53782;DHT22;39692;53.114;7.060;2022-11-06T20:38:13;8.20;99.90
53782;DHT22;39692;53.114;7.060;2022-11-06T20:40:40;8.20;99.90
53782;DHT22;39692;53.114;7.060;2022-11-06T20:43:06;8.20;99.90
53782;DHT22;39692;53.114;7.060;2022-11-06T20:45:32;8.20;99.90